Time;durP1;ratioP1;P1;durP2;ratioP2;P2;SDS_P1;SDS_P2;PMS_P1;PMS_P2;Temp;Humidity;BMP_temperature;BMP_pressure;BME280_temperature;BME280_humidity;BME280_pressure;Samples;Min_cycle;Max_cycle;Signal;HPM_P1;HPM_P2
2023/05/09 00:02:40;;;;;;;1.02;0.93;;;;;;;9.49;100.00;98829.88;15268101;19;20354;-45
2023/05/09 00:08:12;;;;;;;1.73;1.10;;;;;;;9.47;100.00;98833.69;15262291;19;20017;-49
2023/05/09 00:13:40;;;;;;;0.93;0.90;;;;;;;9.46;100.00;98837.38;15264228;19;20545;-48
2023/05/09 00:19:05;;;;;;;1.00;1.00;;;;;;;9.44;100.00;98829.47;15265958;19;20090;-49
2023/05/09 00:24:30;;;;;;;1.75;1.10;;;;;;;9.41;100.00;98819.81;15277318;19;20786;-46
2023/05/09 00:29:57;;;;;;;1.10;1.00;;;;;;;9.40;100.00;98812.78;15274377;19;20024;-47
2023/05/09 00:35:22;;;;;;;1.02;0.90;;;;;;;9.35;100.00;98815.03;15277325;19;20027;-48
2023/05/09 00:40:46;;;;;;;1.45;1.00;;;;;;;9.34;100.00;98812.50;15273670;19;20010;-52
2023/05/09 00:46:14;;;;;;;2.30;1.00;;;;;;;9.38;100.00;98821.97;15276220;19;20015;-49
2023/05/09 00:51:39;;;;;;;1.65;1.00;;;;;;;9.40;100.00;98811.91;15278902;19;20015;-50
2023/05/09 00:57:04;;;;;;;1.13;1.02;;;;;;;9.40;100.00;98806.53;15279530;19;20030;-53
2023/05/09 01:02:31;;;;;;;1.17;0.90;;;;;;;9.35;100.00;98806.13;15270720;19;20339;-45
2023/05/09 01:08:04;;;;;;;1.02;0.90;;;;;;;9.33;100.00;98800.06;15273994;19;20031;-49
2023/05/09 01:13:35;;;;;;;1.10;1.00;;;;;;;9.30;100.00;98798.47;15276434;19;20014;-49
2023/05/09 01:19:19;;;;;;;3.83;1.10;;;;;;;9.32;100.00;98795.66;15272833;19;20010;-47
2023/05/09 01:25:09;;;;;;;1.38;0.90;;;;;;;9.30;100.00;98784.19;15272934;19;20035;-49
2023/05/09 01:30:39;;;;;;;1.55;0.88;;;;;;;9.29;100.00;98779.81;15271198;19;20032;-46
2023/05/09 01:36:09;;;;;;;1.95;1.10;;;;;;;9.27;100.00;98789.84;15270294;19;20014;-51
2023/05/09 01:41:39;;;;;;;1.52;0.90;;;;;;;9.26;100.00;98780.97;15277946;19;20074;-49
2023/05/09 01:47:07;;;;;;;2.03;1.10;;;;;;;9.20;100.00;98789.56;15278396;19;20014;-51
2023/05/09 01:52:34;;;;;;;2.58;1.20;;;;;;;9.16;100.00;98782.81;15278052;19;20021;-49
2023/05/09 01:57:59;;;;;;;1.48;1.00;;;;;;;9.09;100.00;98782.53;15277034;19;20022;-52
2023/05/09 02:03:27;;;;;;;1.35;1.02;;;;;;;9.06;100.00;98766.69;15277200;19;20074;-50
2023/05/09 02:08:59;;;;;;;3.28;0.93;;;;;;;9.04;100.00;98768.66;15272553;19;20495;-52
2023/05/09 02:14:25;;;;;;;1.35;1.00;;;;;;;9.02;100.00;98754.50;15275677;19;20045;-49
2023/05/09 02:19:51;;;;;;;1.55;1.17;;;;;;;9.01;100.00;98759.06;15276787;19;20023;-48
2023/05/09 02:25:18;;;;;;;3.03;1.00;;;;;;;8.98;100.00;98753.13;15274831;19;20024;-47
2023/05/09 02:30:48;;;;;;;2.67;1.10;;;;;;;8.92;100.00;98755.38;15276622;19;20019;-48
2023/05/09 02:36:16;;;;;;;1.58;1.17;;;;;;;8.89;100.00;98755.66;15273976;19;20016;-51
2023/05/09 02:41:41;;;;;;;1.50;1.10;;;;;;;8.88;100.00;98750.44;15266445;19;20026;-46
2023/05/09 02:47:08;;;;;;;3.17;1.10;;;;;;;8.84;100.00;98759.75;15275666;19;20035;-48
2023/05/09 02:52:36;;;;;;;1.17;1.02;;;;;;;8.79;100.00;98755.69;15273717;19;20042;-55
2023/05/09 02:58:01;;;;;;;1.27;1.10;;;;;;;8.74;100.00;98757.94;15274075;19;20556;-48
2023/05/09 03:03:32;;;;;;;1.30;1.20;;;;;;;8.68;100.00;98760.31;15272084;19;20018;-52
2023/05/09 03:09:00;;;;;;;1.30;1.10;;;;;;;8.61;100.00;98752.84;15262119;19;20010;-51
2023/05/09 03:14:25;;;;;;;1.33;1.20;;;;;;;8.54;100.00;98746.31;15269063;19;20010;-48
2023/05/09 03:19:50;;;;;;;1.85;1.15;;;;;;;8.46;100.00;98744.34;15264358;19;20068;-50
2023/05/09 03:25:17;;;;;;;2.00;1.30;;;;;;;8.38;100.00;98741.47;15265743;19;20025;-47
2023/05/09 03:30:42;;;;;;;1.83;1.35;;;;;;;8.29;100.00;98732.41;15268385;19;20036;-47
2023/05/09 03:36:09;;;;;;;7.03;1.30;;;;;;;8.26;100.00;98734.53;15264227;19;20389;-50
2023/05/09 03:41:37;;;;;;;2.38;1.10;;;;;;;8.20;100.00;98741.31;15260828;19;20010;-50
2023/05/09 03:47:01;;;;;;;1.73;1.23;;;;;;;8.14;100.00;98728.44;15267278;19;20021;-51
2023/05/09 03:52:26;;;;;;;1.92;1.27;;;;;;;8.07;100.00;98738.88;15264481;19;20018;-48
2023/05/09 03:57:53;;;;;;;2.20;1.30;;;;;;;8.00;100.00;98738.59;15277493;19;20024;-51
2023/05/09 04:03:21;;;;;;;1.55;1.40;;;;;;;7.94;100.00;98735.59;15282095;19;20049;-52
2023/05/09 04:08:53;;;;;;;2.95;1.30;;;;;;;7.94;100.00;98724.88;15272659;19;20014;-49
2023/05/09 04:14:20;;;;;;;2.85;1.40;;;;;;;7.96;100.00;98723.72;15275929;19;20583;-52
2023/05/09 04:19:46;;;;;;;1.65;1.23;;;;;;;7.97;100.00;98727.28;15274397;19;20013;-47
2023/05/09 04:25:11;;;;;;;2.80;1.50;;;;;;;7.98;100.00;98728.97;15279520;19;20554;-49
2023/05/09 04:30:39;;;;;;;1.95;1.40;;;;;;;7.97;100.00;98727.28;15285624;19;20015;-48
2023/05/09 04:36:05;;;;;;;2.17;1.50;;;;;;;7.99;100.00;98731.50;15281519;19;20318;-52
2023/05/09 04:41:31;;;;;;;2.45;1.40;;;;;;;8.01;100.00;98728.69;15282911;19;20009;-48
2023/05/09 04:47:02;;;;;;;3.75;1.35;;;;;;;8.07;100.00;98716.56;15330399;19;20010;-52
2023/05/09 04:52:29;;;;;;;2.85;1.27;;;;;;;8.11;100.00;98724.22;15349380;19;20018;-44
2023/05/09 04:57:56;;;;;;;1.65;1.27;;;;;;;8.20;100.00;98719.00;15351751;19;20014;-47
2023/05/09 05:03:24;;;;;;;1.95;1.35;;;;;;;8.27;100.00;98704.88;15344962;19;20026;-48
2023/05/09 05:08:58;;;;;;;1.48;1.30;;;;;;;8.41;100.00;98702.78;15343691;19;20043;-47
2023/05/09 05:14:28;;;;;;;1.73;1.33;;;;;;;8.53;100.00;98703.50;15321182;19;20066;-48
2023/05/09 05:20:01;;;;;;;1.73;1.20;;;;;;;8.68;100.00;98699.41;15269742;19;20025;-51
2023/05/09 05:25:30;;;;;;;3.25;1.35;;;;;;;8.83;100.00;98690.88;15270954;19;20464;-48
2023/05/09 05:30:58;;;;;;;3.90;1.50;;;;;;;8.98;100.00;98685.94;15274551;19;20030;-50
2023/05/09 05:36:26;;;;;;;1.85;1.20;;;;;;;9.16;100.00;98681.50;15277907;19;20022;-52
2023/05/09 05:41:52;;;;;;;3.03;1.27;;;;;;;9.36;100.00;98684.13;15265753;19;20037;-52
2023/05/09 05:47:17;;;;;;;1.90;1.38;;;;;;;9.58;100.00;98679.38;15274145;19;20007;-47
2023/05/09 05:52:47;;;;;;;1.70;1.10;;;;;;;9.76;100.00;98671.38;15266716;19;20011;-46
2023/05/09 05:58:13;;;;;;;1.95;1.23;;;;;;;9.99;100.00;98677.16;15271723;19;20017;-46
2023/05/09 06:03:42;;;;;;;3.10;1.30;;;;;;;10.12;100.00;98672.25;15266547;19;20558;-48
2023/05/09 06:09:20;;;;;;;1.20;1.10;;;;;;;10.35;100.00;98682.59;15265918;19;20022;-48
2023/05/09 06:14:48;;;;;;;3.33;1.20;;;;;;;10.57;100.00;98675.94;15267248;19;20037;-48
2023/05/09 06:20:15;;;;;;;3.88;1.20;;;;;;;10.71;100.00;98666.44;15267508;19;20659;-49
2023/05/09 06:25:47;;;;;;;3.38;1.20;;;;;;;10.85;100.00;98662.31;15266936;19;20418;-45
2023/05/09 06:31:13;;;;;;;1.20;1.10;;;;;;;11.04;100.00;98650.50;15268974;19;20037;-49
2023/05/09 06:36:41;;;;;;;1.15;1.00;;;;;;;11.28;100.00;98642.72;15269505;19;20014;-48
2023/05/09 06:42:09;;;;;;;2.53;1.05;;;;;;;11.48;100.00;98640.59;15265589;19;20013;-48
2023/05/09 06:47:34;;;;;;;2.75;1.00;;;;;;;11.66;100.00;98625.19;15273260;19;20020;-48
2023/05/09 06:53:00;;;;;;;1.90;1.10;;;;;;;11.90;100.00;98622.69;15268276;19;20015;-47
2023/05/09 06:58:27;;;;;;;4.18;1.15;;;;;;;12.10;100.00;98617.88;15267770;19;20016;-50
2023/05/09 07:03:53;;;;;;;3.00;1.05;;;;;;;12.36;100.00;98606.09;15268035;19;20014;-47
2023/05/09 07:09:19;;;;;;;1.58;1.17;;;;;;;12.53;100.00;98602.38;15266304;19;20029;-47
2023/05/09 07:14:47;;;;;;;2.20;1.30;;;;;;;12.78;100.00;98594.25;15264917;19;20018;-48
2023/05/09 07:20:12;;;;;;;2.10;1.15;;;;;;;12.97;100.00;98603.84;15268349;19;20025;-47
2023/05/09 07:25:37;;;;;;;1.25;1.15;;;;;;;13.23;100.00;98597.38;15267001;19;20478;-49
2023/05/09 07:31:04;;;;;;;1.58;1.10;;;;;;;13.47;100.00;98592.91;15273790;19;20019;-48
2023/05/09 07:36:29;;;;;;;1.80;1.10;;;;;;;13.73;100.00;98587.19;15282708;19;20987;-49
2023/05/09 07:41:55;;;;;;;1.88;1.30;;;;;;;13.94;100.00;98573.03;15278857;19;20029;-50
2023/05/09 07:47:22;;;;;;;2.05;1.10;;;;;;;14.22;100.00;98571.66;15285279;19;20534;-47
2023/05/09 07:52:47;;;;;;;1.83;1.40;;;;;;;14.45;100.00;98558.91;15280868;19;20389;-48
2023/05/09 07:58:11;;;;;;;3.05;1.20;;;;;;;14.69;100.00;98545.34;15279731;19;20019;-48
2023/05/09 08:03:39;;;;;;;2.97;1.20;;;;;;;14.90;100.00;98548.19;15275870;19;20010;-48
2023/05/09 08:09:04;;;;;;;4.10;1.13;;;;;;;15.10;100.00;98529.47;15276703;19;20036;-47
2023/05/09 08:14:29;;;;;;;2.08;1.15;;;;;;;15.34;100.00;98524.78;15277913;19;20049;-51
2023/05/09 08:19:57;;;;;;;1.95;1.30;;;;;;;15.58;100.00;98522.75;15278225;19;20017;-52
2023/05/09 08:25:23;;;;;;;1.90;1.30;;;;;;;15.76;100.00;98522.31;15277520;19;20021;-49
2023/05/09 08:30:47;;;;;;;1.08;0.98;;;;;;;15.90;100.00;98508.91;15280266;19;20038;-47
2023/05/09 08:36:16;;;;;;;1.60;1.20;;;;;;;16.11;100.00;98502.63;15271741;19;20015;-47
2023/05/09 08:41:41;;;;;;;1.90;1.10;;;;;;;16.27;100.00;98488.78;15274908;19;20559;-51
2023/05/09 08:47:09;;;;;;;1.77;1.13;;;;;;;16.38;100.00;98481.94;15281918;19;20013;-53
2023/05/09 08:52:37;;;;;;;1.42;1.20;;;;;;;16.57;92.92;98480.41;15277449;19;20033;-49
2023/05/09 08:58:02;;;;;;;3.15;1.20;;;;;;;16.74;100.00;98477.38;15281110;19;20015;-51
2023/05/09 09:03:28;;;;;;;1.45;1.20;;;;;;;17.06;100.00;98472.34;15271788;19;20074;-45
2023/05/09 09:08:57;;;;;;;1.92;1.10;;;;;;;17.23;100.00;98462.78;15272139;19;20057;-44
2023/05/09 09:14:27;;;;;;;1.52;1.27;;;;;;;17.40;95.21;98457.81;15274071;19;20010;-43
2023/05/09 09:19:53;;;;;;;4.65;1.40;;;;;;;17.54;97.02;98458.72;15275573;19;20015;-44
2023/05/09 09:25:20;;;;;;;1.70;1.60;;;;;;;17.79;96.45;98443.66;15275785;19;20015;-45
2023/05/09 09:30:52;;;;;;;2.60;1.73;;;;;;;17.92;94.91;98443.66;15276173;19;20010;-45
2023/05/09 09:36:17;;;;;;;1.60;1.50;;;;;;;18.02;87.07;98432.38;15270448;19;20010;-44
2023/05/09 09:41:46;;;;;;;1.98;1.50;;;;;;;18.22;83.74;98421.50;15273696;19;20089;-45
2023/05/09 09:47:12;;;;;;;2.20;1.30;;;;;;;18.35;77.14;98422.50;15268624;19;20029;-45
2023/05/09 09:52:36;;;;;;;1.30;1.20;;;;;;;18.47;84.63;98407.16;15273463;19;20085;-44
2023/05/09 09:58:04;;;;;;;1.33;1.13;;;;;;;18.60;80.70;98390.75;15275308;19;20020;-44
2023/05/09 10:03:29;;;;;;;4.70;1.20;;;;;;;18.74;77.49;98394.31;15272967;19;20022;-44
2023/05/09 10:09:01;;;;;;;1.48;1.30;;;;;;;18.94;72.25;98390.69;15274066;19;20010;-45
2023/05/09 10:14:28;;;;;;;1.80;1.40;;;;;;;19.06;74.32;98393.56;15275253;19;20027;-45
2023/05/09 10:19:56;;;;;;;3.83;1.60;;;;;;;19.22;69.52;98371.22;15272266;19;20029;-45
2023/05/09 10:25:23;;;;;;;1.90;1.25;;;;;;;19.36;71.11;98366.50;15269662;19;20023;-45
2023/05/09 10:30:58;;;;;;;2.58;1.42;;;;;;;19.43;71.98;98366.47;15269798;19;20015;-45
2023/05/09 10:36:27;;;;;;;2.67;1.20;;;;;;;19.65;64.21;98358.75;15270219;19;20024;-44
2023/05/09 10:41:52;;;;;;;3.10;1.30;;;;;;;19.73;62.60;98360.38;15262322;19;20033;-43
2023/05/09 10:47:22;;;;;;;4.10;1.08;;;;;;;19.81;61.21;98349.16;15263757;19;20344;-45
2023/05/09 10:53:15;;;;;;;1.77;1.15;;;;;;;19.94;58.38;98341.94;15269716;19;20019;-44
2023/05/09 10:58:41;;;;;;;1.75;0.95;;;;;;;20.05;56.86;98332.19;15270795;19;20082;-45
2023/05/09 11:04:21;;;;;;;1.17;0.90;;;;;;;20.12;50.79;98319.25;15265633;19;20018;-44
2023/05/09 11:09:46;;;;;;;1.88;0.77;;;;;;;20.17;50.13;98311.19;15268761;19;20034;-45
2023/05/09 11:15:16;;;;;;;0.80;0.77;;;;;;;20.28;52.87;98296.78;15264833;19;20014;-43
2023/05/09 11:20:50;;;;;;;1.05;0.80;;;;;;;20.46;52.57;98286.91;15262565;19;20018;-44
2023/05/09 11:26:16;;;;;;;1.38;0.73;;;;;;;20.63;53.47;98271.53;15268068;19;20018;-44
2023/05/09 11:32:06;;;;;;;2.25;0.90;;;;;;;20.70;51.65;98256.91;15268868;19;20074;-45
2023/05/09 11:37:39;;;;;;;1.38;0.90;;;;;;;20.96;51.16;98263.13;15266746;19;20021;-44
2023/05/09 11:43:04;;;;;;;0.98;0.73;;;;;;;21.03;49.11;98258.38;15266292;19;20017;-46
2023/05/09 11:48:30;;;;;;;1.58;0.80;;;;;;;21.14;48.09;98241.13;15259202;19;20023;-45
2023/05/09 11:53:58;;;;;;;2.67;0.70;;;;;;;21.23;45.62;98219.72;15265830;19;20011;-44
2023/05/09 11:59:24;;;;;;;2.10;0.80;;;;;;;21.43;47.76;98211.16;15265642;19;20048;-44
2023/05/09 12:04:48;;;;;;;3.80;0.70;;;;;;;21.55;46.38;98214.75;15263500;19;20395;-46
2023/05/09 12:10:21;;;;;;;2.08;0.70;;;;;;;21.67;43.21;98192.00;15266231;19;20020;-46
2023/05/09 12:15:47;;;;;;;0.95;0.73;;;;;;;21.78;42.87;98184.84;15269843;19;20426;-46
2023/05/09 12:21:14;;;;;;;1.27;0.70;;;;;;;21.95;43.83;98179.44;15274695;19;20082;-45
2023/05/09 12:26:41;;;;;;;1.70;0.75;;;;;;;22.13;42.50;98162.84;15274479;19;20010;-45
2023/05/09 12:32:07;;;;;;;0.88;0.60;;;;;;;22.27;41.49;98157.91;15276916;19;20014;-44
2023/05/09 12:37:34;;;;;;;2.90;0.80;;;;;;;22.52;42.97;98151.25;15273581;19;20019;-47
2023/05/09 12:43:03;;;;;;;0.98;0.70;;;;;;;22.81;44.50;98145.75;15273712;19;20011;-45
2023/05/09 12:48:28;;;;;;;0.70;0.60;;;;;;;23.01;42.96;98126.00;15278274;19;20037;-46
2023/05/09 12:53:53;;;;;;;1.67;0.70;;;;;;;23.23;43.87;98128.03;15271948;19;20458;-47
2023/05/09 12:59:22;;;;;;;0.98;0.60;;;;;;;23.50;41.96;98111.69;15274694;19;20022;-47
2023/05/09 13:04:54;;;;;;;0.70;0.70;;;;;;;23.63;40.18;98107.72;15268827;19;20035;-45
2023/05/09 13:10:22;;;;;;;3.65;0.55;;;;;;;23.91;40.43;98094.88;15274097;19;20018;-43
2023/05/09 13:15:50;;;;;;;2.05;0.60;;;;;;;24.11;41.09;98085.22;15276444;19;20015;-46
2023/05/09 13:21:15;;;;;;;3.38;0.60;;;;;;;24.34;39.96;98084.09;15274574;19;20015;-45
2023/05/09 13:26:40;;;;;;;2.75;0.60;;;;;;;24.56;39.07;98080.47;15266761;19;20007;-47
2023/05/09 13:32:07;;;;;;;1.48;0.70;;;;;;;24.85;39.78;98075.50;15272577;19;20010;-48
2023/05/09 13:37:35;;;;;;;2.47;0.70;;;;;;;25.19;38.77;98072.44;15271635;19;20321;-49
2023/05/09 13:43:01;;;;;;;1.67;0.60;;;;;;;25.36;38.63;98049.34;15272548;19;20109;-44
2023/05/09 13:48:28;;;;;;;0.85;0.60;;;;;;;25.49;38.79;98037.88;15273684;19;20014;-47
2023/05/09 13:53:53;;;;;;;0.50;0.50;;;;;;;25.42;33.38;98042.81;15273111;19;20474;-48
2023/05/09 13:59:18;;;;;;;0.57;0.50;;;;;;;25.42;35.74;98039.22;15271212;19;20010;-48
2023/05/09 14:04:46;;;;;;;2.42;0.52;;;;;;;25.72;33.22;98032.19;15267872;19;20025;-49
2023/05/09 14:10:12;;;;;;;2.25;0.65;;;;;;;26.15;33.95;98039.25;15269878;19;20019;-46
2023/05/09 14:15:38;;;;;;;1.88;0.60;;;;;;;26.17;32.18;98027.13;15269672;19;20010;-48
2023/05/09 14:21:05;;;;;;;2.15;0.50;;;;;;;26.58;33.03;98018.84;15269391;19;20014;-46
2023/05/09 14:26:35;;;;;;;1.45;0.55;;;;;;;26.85;31.81;98017.78;15274772;19;20463;-48
2023/05/09 14:31:59;;;;;;;2.60;0.50;;;;;;;26.84;31.79;98016.09;15268721;19;20078;-48
2023/05/09 14:37:28;;;;;;;0.55;0.40;;;;;;;27.00;29.22;98006.66;15263311;19;20010;-47
2023/05/09 14:43:01;;;;;;;2.95;0.55;;;;;;;26.68;27.88;98002.25;15268575;19;20010;-46
2023/05/09 14:48:26;;;;;;;0.45;0.35;;;;;;;26.97;28.47;97990.66;15270011;19;20014;-48
2023/05/09 14:53:53;;;;;;;0.77;0.40;;;;;;;26.90;28.70;97977.13;15243429;19;20014;-46
2023/05/09 14:59:22;;;;;;;1.80;0.60;;;;;;;26.89;28.95;97974.63;15262953;19;20082;-52
2023/05/09 15:04:46;;;;;;;0.43;0.40;;;;;;;26.85;29.97;97962.50;15265916;19;20033;-47
2023/05/09 15:10:14;;;;;;;5.40;1.20;;;;;;;27.01;30.17;97966.88;15266061;19;20028;-45
2023/05/09 15:15:39;;;;;;;2.47;0.70;;;;;;;26.92;32.03;97954.72;15266785;19;20078;-51
2023/05/09 15:21:12;;;;;;;3.03;0.60;;;;;;;26.58;31.41;97955.31;15255874;19;20078;-53
2023/05/09 15:26:39;;;;;;;1.40;0.50;;;;;;;26.15;29.70;97939.88;15266867;19;20019;-52
2023/05/09 15:32:04;;;;;;;1.30;0.60;;;;;;;26.33;31.39;97940.41;15266059;19;20018;-51
2023/05/09 15:37:29;;;;;;;1.30;0.70;;;;;;;26.30;30.81;97924.38;15269711;19;20015;-54
2023/05/09 15:42:57;;;;;;;0.82;0.60;;;;;;;26.46;30.52;97912.22;15267160;19;20038;-53
2023/05/09 15:48:25;;;;;;;1.42;0.70;;;;;;;26.44;30.74;97917.19;15267841;19;20463;-54
2023/05/09 15:53:50;;;;;;;0.80;0.50;;;;;;;26.34;30.46;97914.44;15279291;19;20022;-53
2023/05/09 15:59:17;;;;;;;1.33;0.50;;;;;;;26.46;29.94;97914.19;15277920;19;20018;-53
2023/05/09 16:04:43;;;;;;;1.45;0.57;;;;;;;26.65;30.86;97908.06;15276812;19;20029;-54
2023/05/09 16:10:09;;;;;;;2.63;0.50;;;;;;;26.13;29.07;97892.38;15281731;19;20027;-54
2023/05/09 16:15:36;;;;;;;1.60;0.50;;;;;;;26.11;30.73;97889.06;15282925;19;20029;-48
2023/05/09 16:21:01;;;;;;;1.15;0.55;;;;;;;26.13;30.69;97881.34;15274454;19;20025;-55
2023/05/09 16:26:25;;;;;;;0.77;0.50;;;;;;;25.51;29.99;97872.16;15279991;19;20018;-52
2023/05/09 16:31:52;;;;;;;2.28;0.60;;;;;;;24.98;29.05;97861.22;15276573;19;20037;-52
2023/05/09 16:37:18;;;;;;;2.83;0.47;;;;;;;24.72;30.80;97864.66;15275971;19;20046;-53
2023/05/09 16:42:44;;;;;;;1.85;0.60;;;;;;;24.49;30.46;97854.88;15278644;19;20010;-53
2023/05/09 16:48:11;;;;;;;1.40;0.60;;;;;;;24.38;31.19;97840.22;15276097;19;20030;-53
2023/05/09 16:53:36;;;;;;;1.70;0.60;;;;;;;24.45;31.95;97837.22;15277230;19;20026;-52
2023/05/09 16:59:00;;;;;;;0.82;0.50;;;;;;;24.46;32.16;97841.63;15277831;19;20024;-54
2023/05/09 17:04:28;;;;;;;1.95;0.38;;;;;;;24.37;31.32;97827.53;15276665;19;20037;-53
2023/05/09 17:09:55;;;;;;;1.27;0.50;;;;;;;24.41;32.86;97822.31;15274603;19;20022;-54
2023/05/09 17:15:20;;;;;;;1.00;0.50;;;;;;;24.42;32.43;97815.72;15279737;19;20028;-51
2023/05/09 17:20:54;;;;;;;1.00;0.50;;;;;;;24.09;32.71;97813.06;15272891;19;20891;-50
2023/05/09 17:26:19;;;;;;;0.77;0.60;;;;;;;23.76;33.13;97808.66;15277324;19;20045;-54
2023/05/09 17:31:43;;;;;;;0.82;0.65;;;;;;;23.67;33.71;97808.28;15270786;19;20570;-53
2023/05/09 17:37:10;;;;;;;1.58;0.65;;;;;;;23.61;33.61;97804.66;15278589;19;20028;-53
2023/05/09 17:42:35;;;;;;;1.65;0.70;;;;;;;23.61;34.56;97785.41;15270038;19;20010;-53
2023/05/09 17:48:01;;;;;;;1.13;0.60;;;;;;;23.54;34.36;97793.06;15270171;19;20035;-52
2023/05/09 17:53:29;;;;;;;1.13;0.57;;;;;;;23.45;35.24;97800.13;15277360;19;20021;-51
2023/05/09 17:58:54;;;;;;;1.38;0.70;;;;;;;23.26;34.47;97800.50;15277148;19;20018;-53
2023/05/09 18:04:19;;;;;;;4.32;0.70;;;;;;;22.98;35.83;97798.78;15277226;19;20014;-53
2023/05/09 18:09:54;;;;;;;1.55;0.77;;;;;;;22.44;35.43;97806.66;15272104;19;20042;-52
2023/05/09 18:15:20;;;;;;;1.60;0.80;;;;;;;21.95;36.37;97801.81;15269185;19;20025;-51
2023/05/09 18:20:45;;;;;;;1.42;0.70;;;;;;;21.60;37.27;97794.69;15269635;19;20017;-52
2023/05/09 18:26:12;;;;;;;1.73;0.70;;;;;;;21.04;37.98;97791.72;15272869;19;20021;-50
2023/05/09 18:31:40;;;;;;;0.73;0.70;;;;;;;20.69;38.04;97803.63;15270021;19;20086;-52
2023/05/09 18:37:05;;;;;;;2.85;0.93;;;;;;;20.41;38.81;97799.72;15278800;19;20034;-45
2023/05/09 18:42:34;;;;;;;1.42;0.70;;;;;;;20.01;40.07;97801.31;15274582;19;20014;-47
2023/05/09 18:47:59;;;;;;;1.05;0.70;;;;;;;19.54;40.98;97789.25;15271718;19;20085;-50
2023/05/09 18:53:25;;;;;;;1.40;0.70;;;;;;;19.19;41.50;97811.84;15272328;19;20024;-49
2023/05/09 18:58:53;;;;;;;2.42;0.70;;;;;;;18.83;42.83;97794.47;15267390;19;20002;-49
2023/05/09 19:04:18;;;;;;;1.83;0.88;;;;;;;18.51;43.45;97804.75;15267120;19;20030;-45
2023/05/09 19:09:43;;;;;;;1.48;0.70;;;;;;;18.15;44.44;97799.91;15265754;19;20022;-50
2023/05/09 19:15:11;;;;;;;1.58;0.80;;;;;;;17.82;45.53;97800.19;15266718;19;20015;-50
2023/05/09 19:20:37;;;;;;;3.20;0.77;;;;;;;17.52;46.00;97793.50;15258067;19;20026;-47
2023/05/09 19:26:02;;;;;;;3.33;0.73;;;;;;;17.26;46.53;97783.66;15284271;19;20473;-45
2023/05/09 19:31:30;;;;;;;1.17;0.90;;;;;;;16.97;48.28;97785.09;15291424;19;20024;-45
2023/05/09 19:36:54;;;;;;;2.67;0.80;;;;;;;16.63;48.43;97777.94;15295479;19;20301;-50
2023/05/09 19:42:20;;;;;;;2.42;1.00;;;;;;;16.37;50.09;97784.28;15292278;19;20355;-46
2023/05/09 19:47:47;;;;;;;1.10;0.73;;;;;;;16.02;51.33;97784.59;15289756;19;21301;-51
2023/05/09 19:53:14;;;;;;;3.13;0.88;;;;;;;15.75;52.72;97781.06;15290161;19;20034;-46
2023/05/09 19:58:38;;;;;;;1.05;0.70;;;;;;;15.42;54.03;97777.28;15295014;19;20025;-45
2023/05/09 20:04:06;;;;;;;0.85;0.73;;;;;;;15.28;55.50;97770.22;15291349;19;20018;-45
2023/05/09 20:09:31;;;;;;;1.77;0.95;;;;;;;15.07;55.98;97767.47;15292130;19;20023;-44
2023/05/09 20:14:56;;;;;;;4.38;0.98;;;;;;;15.00;57.33;97763.91;15294442;19;20021;-50
2023/05/09 20:20:35;;;;;;;1.27;0.80;;;;;;;14.90;57.52;97766.19;15292742;19;20034;-46
2023/05/09 20:26:06;;;;;;;1.85;0.80;;;;;;;14.79;58.33;97756.78;15287852;19;20501;-48
2023/05/09 20:31:30;;;;;;;0.70;0.70;;;;;;;14.67;59.28;97766.53;15290611;19;20009;-46
2023/05/09 20:36:59;;;;;;;2.63;1.00;;;;;;;14.53;62.82;97752.06;15285256;19;20073;-47
2023/05/09 20:42:24;;;;;;;1.30;1.10;;;;;;;14.49;62.16;97768.75;15279391;19;20007;-49
2023/05/09 20:47:49;;;;;;;1.50;1.10;;;;;;;14.38;66.89;97765.78;15279114;19;20146;-50
2023/05/09 20:53:16;;;;;;;2.55;1.00;;;;;;;14.25;69.85;97761.16;15275503;19;20612;-45
2023/05/09 20:58:41;;;;;;;1.60;1.00;;;;;;;14.15;75.27;97765.06;15272211;19;20010;-47
2023/05/09 21:04:07;;;;;;;6.20;1.10;;;;;;;14.07;76.24;97764.38;15275743;19;20010;-48
2023/05/09 21:09:35;;;;;;;2.30;1.10;;;;;;;13.98;82.08;97755.59;15275040;19;20601;-49
2023/05/09 21:14:59;;;;;;;1.30;0.90;;;;;;;13.89;82.14;97754.91;15280371;19;20013;-48
2023/05/09 21:20:25;;;;;;;1.38;1.00;;;;;;;13.79;86.09;97740.88;15277176;19;20018;-46
2023/05/09 21:25:52;;;;;;;2.05;1.10;;;;;;;13.67;89.06;97743.31;15275528;19;20572;-47
2023/05/09 21:31:17;;;;;;;3.17;1.08;;;;;;;13.58;93.21;97739.09;15269689;19;20081;-48
2023/05/09 21:36:41;;;;;;;1.35;0.90;;;;;;;13.49;93.26;97739.22;15276509;19;20534;-47
2023/05/09 21:42:09;;;;;;;2.03;1.10;;;;;;;13.47;95.62;97737.75;15274914;19;20021;-49
2023/05/09 21:47:33;;;;;;;1.10;1.00;;;;;;;13.39;97.22;97730.59;15268707;19;20014;-48
2023/05/09 21:52:59;;;;;;;1.13;1.00;;;;;;;13.31;100.00;97728.88;15272340;19;20010;-48
2023/05/09 21:58:26;;;;;;;2.88;1.20;;;;;;;13.22;100.00;97721.94;15270430;19;20364;-47
2023/05/09 22:03:52;;;;;;;3.05;0.93;;;;;;;13.14;100.00;97712.09;15270495;19;20094;-50
2023/05/09 22:09:18;;;;;;;3.85;0.98;;;;;;;13.15;98.83;97727.28;15270503;19;20010;-51
2023/05/09 22:14:46;;;;;;;1.70;0.90;;;;;;;13.08;100.00;97721.00;15274136;19;20021;-51
2023/05/09 22:20:20;;;;;;;1.27;1.03;;;;;;;13.06;98.81;97714.94;15269498;19;20053;-48
2023/05/09 22:25:40;;;;;;;1.80;0.90;;;;;;;13.01;100.00;97726.34;15272185;19;20278;-47
2023/05/09 22:31:09;;;;;;;2.28;0.93;;;;;;;12.91;100.00;97721.25;15262683;19;20021;-44
2023/05/09 22:36:34;;;;;;;1.40;0.80;;;;;;;12.87;100.00;97701.06;15269656;19;20086;-45
2023/05/09 22:42:01;;;;;;;1.15;0.90;;;;;;;12.85;100.00;97696.84;15263827;19;20015;-44
2023/05/09 22:47:28;;;;;;;2.25;1.00;;;;;;;12.84;100.00;97697.88;15269793;19;20022;-46
2023/05/09 22:52:54;;;;;;;1.83;0.90;;;;;;;12.85;100.00;97686.03;15271398;19;20490;-44
2023/05/09 22:58:19;;;;;;;1.98;0.95;;;;;;;12.79;100.00;97680.41;15267361;19;20019;-46
2023/05/09 23:03:48;;;;;;;1.27;1.00;;;;;;;12.75;100.00;97686.38;15264629;19;20025;-46
2023/05/09 23:09:14;;;;;;;2.22;0.93;;;;;;;12.72;100.00;97675.97;15269214;19;20011;-47
2023/05/09 23:14:39;;;;;;;1.75;1.00;;;;;;;12.71;100.00;97677.81;15267912;19;20047;-45
2023/05/09 23:20:08;;;;;;;0.85;0.73;;;;;;;12.72;100.00;97670.56;15265551;19;20047;-45
2023/05/09 23:25:33;;;;;;;0.95;0.85;;;;;;;12.71;100.00;97668.88;15269642;19;20011;-44
2023/05/09 23:30:59;;;;;;;1.83;0.90;;;;;;;12.68;100.00;97670.09;15266926;19;20026;-45
2023/05/09 23:36:27;;;;;;;1.08;0.90;;;;;;;12.68;100.00;97670.09;15266831;19;20017;-45
2023/05/09 23:41:52;;;;;;;1.33;0.88;;;;;;;12.67;100.00;97670.28;15262071;19;20011;-51
2023/05/09 23:47:18;;;;;;;6.05;0.90;;;;;;;12.64;100.00;97664.22;15268600;19;20224;-45
2023/05/09 23:52:48;;;;;;;2.88;1.00;;;;;;;12.64;100.00;97656.13;15275079;19;20039;-45
2023/05/09 23:58:14;;;;;;;1.00;0.90;;;;;;;12.63;100.00;97657.19;15270534;19;20013;-47
